Observation data for Fluvanna on 02/14/2020      Previous  Date  Next       Current Mesonet Observations  Soil Data  Daily Summary Page  Observations in Plain Language
KFVS 140600Z 09012G17KT M02/M04 A303 RMK A01 T10181040  RH  086%=      5-min Rain = 0
KFVS 140605Z 10009KT M02/M04 A303 RMK A01 T10201039  RH  087%=      5-min Rain = 0
KFVS 140610Z 10008KT M02/M04 A303 RMK A01 T10211039  RH  088%=      5-min Rain = 0
KFVS 140615Z 10009KT M02/M04 A303 RMK A01 T10221039  RH  088%=      5-min Rain = 0
KFVS 140620Z 10009G14KT M02/M04 A303 RMK A01 T10211038  RH  088%=      5-min Rain = 0
KFVS 140625Z 10009KT M02/M04 A303 RMK A01 T10221039  RH  089%=      5-min Rain = 0
KFVS 140630Z 10009KT M02/M04 A303 RMK A01 T10221038  RH  089%=      5-min Rain = 0
KFVS 140635Z 10009KT M02/M04 A303 RMK A01 T10231038  RH  090%=      5-min Rain = 0
KFVS 140640Z 10009KT M02/M04 A303 RMK A01 T10231038  RH  090%=      5-min Rain = 0
KFVS 140645Z 10009KT M02/M04 A303 RMK A01 T10241038  RH  090%=      5-min Rain = 0
KFVS 140650Z 10009KT M02/M04 A303 RMK A01 T10241038  RH  090%=      5-min Rain = 0
KFVS 140655Z 10009KT M02/M04 A303 RMK A01 T10241039  RH  090%=      5-min Rain = 0
KFVS 140700Z 10008KT M03/M04 A303 RMK A01 T10251039  RH  090%=      5-min Rain = 0
KFVS 140705Z 10008KT M03/M04 A303 RMK A01 T10251040  RH  090%=      5-min Rain = 0
KFVS 140710Z 10008KT M03/M04 A303 RMK A01 T10261041  RH  090%=      5-min Rain = 0
KFVS 140715Z 09006KT M03/M04 A303 RMK A01 T10271042  RH  090%=      5-min Rain = 0
KFVS 140720Z 09006KT M03/M04 A303 RMK A01 T10281042  RH  090%=      5-min Rain = 0
KFVS 140725Z 09007KT M03/M04 A303 RMK A01 T10271042  RH  090%=      5-min Rain = 0
KFVS 140730Z 10008KT M03/M04 A303 RMK A01 T10271042  RH  090%=      5-min Rain = 0
KFVS 140735Z 10007KT M03/M04 A303 RMK A01 T10271043  RH  090%=      5-min Rain = 0
KFVS 140740Z 10007KT M03/M04 A303 RMK A01 T10281043  RH  089%=      5-min Rain = 0
KFVS 140745Z 10007KT M03/M04 A303 RMK A01 T10281044  RH  089%=      5-min Rain = 0
KFVS 140750Z 10006KT M03/M05 A303 RMK A01 T10291046  RH  088%=      5-min Rain = 0
KFVS 140755Z 10006KT M03/M05 A3031 RMK A01 T10291048  RH  087%=      5-min Rain = 0
KFVS 140800Z 11007KT M03/M05 A3031 RMK A01 T10301050  RH  087%=      5-min Rain = 0
KFVS 140805Z 11008KT M03/M05 A3031 RMK A01 T10301051  RH  086%=      5-min Rain = 0
KFVS 140810Z 11008KT M03/M05 A3031 RMK A01 T10301052  RH  085%=      5-min Rain = 0
KFVS 140815Z 11008KT M03/M05 A3031 RMK A01 T10311053  RH  085%=      5-min Rain = 0
KFVS 140820Z 10006KT M03/M05 A3031 RMK A01 T10321053  RH  086%=      5-min Rain = 0
KFVS 140825Z 11006KT M03/M05 A3031 RMK A01 T10331053  RH  086%=      5-min Rain = 0
KFVS 140830Z 10006KT M03/M05 A3031 RMK A01 T10341054  RH  086%=      5-min Rain = 0
KFVS 140835Z 09006KT M03/M05 A3031 RMK A01 T10341054  RH  086%=      5-min Rain = 0
KFVS 140840Z 09006KT M04/M05 A3031 RMK A01 T10351054  RH  087%=      5-min Rain = 0
KFVS 140845Z 10006KT M04/M05 A3031 RMK A01 T10361054  RH  087%=      5-min Rain = 0
KFVS 140850Z 10006KT M04/M05 A3031 RMK A01 T10361054  RH  087%=      5-min Rain = 0
KFVS 140855Z 10006KT M04/M06 A3031 RMK A01 T10371055  RH  087%=      5-min Rain = 0
KFVS 140900Z 10006KT M04/M06 A3031 RMK A01 T10371055  RH  088%=      5-min Rain = 0
KFVS 140905Z 10005KT M04/M06 A3031 RMK A01 T10391057  RH  088%=      5-min Rain = 0
KFVS 140910Z 09006KT M04/M06 A3031 RMK A01 T10401057  RH  088%=      5-min Rain = 0
KFVS 140915Z 10005KT M04/M06 A3031 RMK A01 T10401056  RH  088%=      5-min Rain = 0
KFVS 140920Z 10005KT M04/M06 A3031 RMK A01 T10401057  RH  088%=      5-min Rain = 0
KFVS 140925Z 10005KT M04/M06 A3031 RMK A01 T10411058  RH  088%=      5-min Rain = 0
KFVS 140930Z 10006KT M04/M06 A3031 RMK A01 T10401058  RH  088%=      5-min Rain = 0
KFVS 140935Z 10006KT M04/M06 A3031 RMK A01 T10411059  RH  087%=      5-min Rain = 0
KFVS 140940Z 10006KT M04/M06 A3031 RMK A01 T10411059  RH  087%=      5-min Rain = 0
KFVS 140945Z 10006KT M04/M06 A3031 RMK A01 T10401059  RH  087%=      5-min Rain = 0
KFVS 140950Z 10006KT M04/M06 A3031 RMK A01 T10391058  RH  087%=      5-min Rain = 0
KFVS 140955Z 09005KT M04/M06 A3031 RMK A01 T10381057  RH  087%=      5-min Rain = 0
KFVS 141000Z 08005KT M04/M06 A3031 RMK A01 T10381057  RH  087%=      5-min Rain = 0
KFVS 141005Z 08004KT M04/M06 A3031 RMK A01 T10381057  RH  087%=      5-min Rain = 0
KFVS 141010Z 09005KT M04/M06 A3031 RMK A01 T10391057  RH  087%=      5-min Rain = 0
KFVS 141015Z 09005KT M04/M06 A3031 RMK A01 T10401058  RH  087%=      5-min Rain = 0
KFVS 141020Z 09005KT M04/M06 A3031 RMK A01 T10401058  RH  088%=      5-min Rain = 0
KFVS 141025Z 06003KT M04/M06 A3031 RMK A01 T10411059  RH  087%=      5-min Rain = 0
KFVS 141030Z 05002KT M04/M06 A3031 RMK A01 T10421060  RH  088%=      5-min Rain = 0
KFVS 141035Z 06002KT M04/M06 A3031 RMK A01 T10431061  RH  088%=      5-min Rain = 0
KFVS 141040Z 06002KT M04/M06 A3031 RMK A01 T10441062  RH  088%=      5-min Rain = 0
KFVS 141045Z 05003KT M05/M06 A3031 RMK A01 T10451062  RH  088%=      5-min Rain = 0
KFVS 141050Z 05003KT M05/M06 A3031 RMK A01 T10461063  RH  088%=      5-min Rain = 0
KFVS 141055Z 03003KT M05/M06 A3031 RMK A01 T10471064  RH  088%=      5-min Rain = 0
KFVS 141100Z 02003KT M05/M06 A3031 RMK A01 T10481064  RH  089%=      5-min Rain = 0
KFVS 141105Z 01003KT M05/M06 A3031 RMK A01 T10491064  RH  089%=      5-min Rain = 0
KFVS 141110Z 02004KT M05/M06 A3032 RMK A01 T10491064  RH  089%=      5-min Rain = 0
KFVS 141115Z 02005KT M05/M07 A3032 RMK A01 T10501065  RH  090%=      5-min Rain = 0
KFVS 141120Z 02005KT M05/M07 A3032 RMK A01 T10521066  RH  090%=      5-min Rain = 0
KFVS 141125Z 03004KT M05/M07 A3032 RMK A01 T10521065  RH  090%=      5-min Rain = 0
KFVS 141130Z 03004KT M05/M06 A3032 RMK A01 T10511063  RH  091%=      5-min Rain = 0
KFVS 141135Z 03004KT M05/M06 A3032 RMK A01 T10501062  RH  091%=      5-min Rain = 0
KFVS 141140Z 03003KT M05/M06 A3032 RMK A01 T10491061  RH  091%=      5-min Rain = 0
KFVS 141145Z 04003KT M05/M06 A3032 RMK A01 T10481061  RH  091%=      5-min Rain = 0
KFVS 141150Z 04004KT M05/M06 A3032 RMK A01 T10471060  RH  091%=      5-min Rain = 0
KFVS 141155Z 04004KT M05/M06 A3032 RMK A01 T10471060  RH  091%=      5-min Rain = 0
KFVS 141200Z 05003KT M05/M06 A3032 RMK A01 T10461059  RH  090%=      5-min Rain = 0
KFVS 141205Z 04004KT M05/M06 A3032 RMK A01 T10451059  RH  090%=      5-min Rain = 0
KFVS 141210Z 05003KT M05/M06 A3032 RMK A01 T10451059  RH  090%=      5-min Rain = 0
KFVS 141215Z 05004KT M05/M06 A3032 RMK A01 T10451059  RH  090%=      5-min Rain = 0
KFVS 141220Z 05002KT M05/M06 A3033 RMK A01 T10451060  RH  089%=      5-min Rain = 0
KFVS 141225Z 05002KT M04/M06 A3033 RMK A01 T10441059  RH  090%=      5-min Rain = 0
KFVS 141230Z 05003KT M05/M06 A3033 RMK A01 T10451059  RH  090%=      5-min Rain = 0
KFVS 141235Z 05004KT M05/M06 A3033 RMK A01 T10451060  RH  089%=      5-min Rain = 0
KFVS 141240Z 06003KT M05/M06 A3033 RMK A01 T10451060  RH  089%=      5-min Rain = 0
KFVS 141245Z 05003KT M05/M06 A3033 RMK A01 T10451060  RH  089%=      5-min Rain = 0
KFVS 141250Z 05003KT M05/M06 A3033 RMK A01 T10451060  RH  089%=      5-min Rain = 0
KFVS 141255Z 06003KT M04/M06 A3033 RMK A01 T10441059  RH  089%=      5-min Rain = 0
KFVS 141300Z 06003KT M04/M06 A3033 RMK A01 T10431059  RH  089%=      5-min Rain = 0
KFVS 141305Z 06003KT M04/M06 A3033 RMK A01 T10431060  RH  088%=      5-min Rain = 0
KFVS 141310Z 06004KT M04/M06 A3033 RMK A01 T10421059  RH  088%=      5-min Rain = 0
KFVS 141315Z 07002KT M04/M06 A3033 RMK A01 T10421059  RH  088%=      5-min Rain = 0
KFVS 141320Z 07003KT M04/M06 A3033 RMK A01 T10411058  RH  088%=      5-min Rain = 0
KFVS 141325Z 07003KT M04/M06 A3034 RMK A01 T10411059  RH  087%=      5-min Rain = 0
KFVS 141330Z 06003KT M04/M06 A3034 RMK A01 T10411059  RH  087%=      5-min Rain = 0
KFVS 141335Z 06003KT M04/M06 A3034 RMK A01 T10411059  RH  087%=      5-min Rain = 0
KFVS 141340Z 08003KT M04/M06 A3034 RMK A01 T10401058  RH  088%=      5-min Rain = 0
KFVS 141345Z 08003KT M04/M06 A3034 RMK A01 T10401057  RH  088%=      5-min Rain = 0
KFVS 141350Z 08003KT M04/M06 A3034 RMK A01 T10391056  RH  088%=      5-min Rain = 0
KFVS 141355Z 07004KT M04/M06 A3034 RMK A01 T10391056  RH  088%=      5-min Rain = 0
KFVS 141400Z 08004KT M04/M06 A3034 RMK A01 T10401057  RH  088%=      5-min Rain = 0
KFVS 141405Z 07003KT M04/M06 A3034 RMK A01 T10401057  RH  088%=      5-min Rain = 0
KFVS 141410Z 06003KT M04/M06 A3034 RMK A01 T10391056  RH  088%=      5-min Rain = 0
KFVS 141415Z 07003KT M04/M06 A3035 RMK A01 T10401056  RH  089%=      5-min Rain = 0
KFVS 141420Z 06004KT M04/M06 A3034 RMK A01 T10391055  RH  089%=      5-min Rain = 0
KFVS 141425Z 07003KT M04/M05 A3034 RMK A01 T10391054  RH  089%=      5-min Rain = 0
KFVS 141430Z 09002KT M04/M05 A3035 RMK A01 T10381054  RH  089%=      5-min Rain = 0
KFVS 141435Z 10002KT M04/M05 A3034 RMK A01 T10381054  RH  089%=      5-min Rain = 0
KFVS 141440Z 10003KT M04/M05 A3034 RMK A01 T10361052  RH  089%=      5-min Rain = 0
KFVS 141445Z 10002KT M04/M05 A3034 RMK A01 T10351050  RH  089%=      5-min Rain = 0
KFVS 141450Z 10003KT M03/M05 A3035 RMK A01 T10341049  RH  089%=      5-min Rain = 0
KFVS 141455Z 11003KT M03/M05 A3035 RMK A01 T10331048  RH  089%=      5-min Rain = 0
KFVS 141500Z 10004KT M03/M05 A3035 RMK A01 T10311046  RH  090%=      5-min Rain = 0
KFVS 141505Z 10004KT M03/M05 A3035 RMK A01 T10301046  RH  089%=      5-min Rain = 0
KFVS 141510Z 10004KT M03/M05 A3035 RMK A01 T10301045  RH  089%=      5-min Rain = 0
KFVS 141515Z 11004KT M03/M05 A3035 RMK A01 T10291045  RH  089%=      5-min Rain = 0
KFVS 141520Z 11004KT M03/M04 A3035 RMK A01 T10291044  RH  090%=      5-min Rain = 0
KFVS 141525Z 11004KT M03/M04 A3035 RMK A01 T10271042  RH  090%=      5-min Rain = 0
KFVS 141530Z 12004KT M03/M04 A3035 RMK A01 T10281043  RH  090%=      5-min Rain = 0
KFVS 141535Z 11004KT M03/M04 A3035 RMK A01 T10271042  RH  090%=      5-min Rain = 0
KFVS 141540Z 11003KT M03/M04 A3035 RMK A01 T10261040  RH  090%=      5-min Rain = 0
KFVS 141545Z 11004KT M03/M04 A3035 RMK A01 T10261040  RH  090%=      5-min Rain = 0
KFVS 141550Z 12004KT M03/M04 A3035 RMK A01 T10261040  RH  090%=      5-min Rain = 0
KFVS 141555Z 13004KT M03/M04 A3035 RMK A01 T10251039  RH  090%=      5-min Rain = 0
KFVS 141600Z 12004KT M02/M04 A3035 RMK A01 T10241038  RH  091%=      5-min Rain = 0
KFVS 141605Z 12005KT M02/M04 A3035 RMK A01 T10221035  RH  091%=      5-min Rain = 0
KFVS 141610Z 13006KT M02/M04 A3035 RMK A01 T10221035  RH  091%=      5-min Rain = 0
KFVS 141615Z 13006KT M02/M04 A3035 RMK A01 T10221035  RH  091%=      5-min Rain = 0
KFVS 141620Z 15007KT M02/M04 A3035 RMK A01 T10221035  RH  091%=      5-min Rain = 0
KFVS 141625Z 14006KT M02/M03 A3035 RMK A01 T10201033  RH  091%=      5-min Rain = 0
KFVS 141630Z 15006KT M02/M03 A3035 RMK A01 T10201033  RH  091%=      5-min Rain = 0
KFVS 141635Z 14008KT M02/M03 A3035 RMK A01 T10191032  RH  092%=      5-min Rain = 0
KFVS 141640Z 14008KT M02/M03 A3035 RMK A01 T10201033  RH  092%=      5-min Rain = 0
KFVS 141645Z 17009KT M02/M03 A3035 RMK A01 T10191032  RH  092%=      5-min Rain = 0
KFVS 141650Z 15008KT M02/M03 A3035 RMK A01 T10201032  RH  092%=      5-min Rain = 0
KFVS 141655Z 16007KT M02/M03 A3035 RMK A01 T10181030  RH  092%=      5-min Rain = 0
KFVS 141700Z 15006G11KT M02/M03 A3035 RMK A01 T10171030  RH  092%=      5-min Rain = 0
KFVS 141705Z 15008KT M02/M03 A3034 RMK A01 T10181030  RH  092%=      5-min Rain = 0
KFVS 141710Z 15007KT M02/M03 A3034 RMK A01 T10181030  RH  092%=      5-min Rain = 0
KFVS 141715Z 15008KT M02/M03 A3034 RMK A01 T10171029  RH  092%=      5-min Rain = 0
KFVS 141720Z 15007KT M02/M03 A3034 RMK A01 T10171029  RH  092%=      5-min Rain = 0
KFVS 141725Z 15008KT M02/M03 A3033 RMK A01 T10151027  RH  092%=      5-min Rain = 0
KFVS 141730Z 15009KT M01/M03 A3033 RMK A01 T10141027  RH  092%=      5-min Rain = 0
KFVS 141735Z 15007KT M01/M03 A3033 RMK A01 T10121025  RH  092%=      5-min Rain = 0
KFVS 141740Z 14008KT M01/M02 A3033 RMK A01 T10111024  RH  091%=      5-min Rain = 0
KFVS 141745Z 14008KT M01/M02 A3033 RMK A01 T10091023  RH  091%=      5-min Rain = 0
KFVS 141750Z 15008G13KT M01/M02 A3032 RMK A01 T10101024  RH  090%=      5-min Rain = 0
KFVS 141755Z 16008KT M01/M02 A3032 RMK A01 T10091024  RH  090%=      5-min Rain = 0
KFVS 141800Z 15008KT M01/M02 A3032 RMK A01 T10071022  RH  090%=      5-min Rain = 0
KFVS 141805Z 14008KT M01/M02 A3032 RMK A01 T10071022  RH  090%=      5-min Rain = 0
KFVS 141810Z 14008KT M01/M02 A3031 RMK A01 T10061022  RH  090%=      5-min Rain = 0
KFVS 141815Z 16008KT M01/M02 A3031 RMK A01 T10051021  RH  090%=      5-min Rain = 0
KFVS 141820Z 16006KT M00/M02 A3031 RMK A01 T10031018  RH  090%=      5-min Rain = 0
KFVS 141825Z 16006KT M00/M02 A3031 RMK A01 T10011017  RH  090%=      5-min Rain = 0
KFVS 141830Z 15007KT M00/M02 A3031 RMK A01 T10021018  RH  090%=      5-min Rain = 0
KFVS 141835Z 16007KT 00/02 A3031 RMK A01 T00-00-17  RH  089%=      5-min Rain = 0
KFVS 141840Z 17008KT 00/M01 A3031 RMK A01 T00031014  RH  090%=      5-min Rain = 0
KFVS 141845Z 17008KT 01/M01 A3031 RMK A01 T00051013  RH  089%=      5-min Rain = 0
KFVS 141850Z 16008KT 01/M01 A3031 RMK A01 T00061014  RH  088%=      5-min Rain = 0
KFVS 141855Z 18011KT 01/M01 A303 RMK A01 T00081012  RH  088%=      5-min Rain = 0
KFVS 141900Z 18010KT 01/M01 A303 RMK A01 T00091013  RH  086%=      5-min Rain = 0
KFVS 141905Z 17010KT 01/M01 A303 RMK A01 T00091013  RH  086%=      5-min Rain = 0
KFVS 141910Z 17010KT 01/M01 A303 RMK A01 T00101012  RH  086%=      5-min Rain = 0
KFVS 141915Z 18011KT 01/M01 A3029 RMK A01 T00101011  RH  087%=      5-min Rain = 0
KFVS 141920Z 17011KT 01/M01 A3029 RMK A01 T00111010  RH  087%=      5-min Rain = 0
KFVS 141925Z 17011KT 01/M01 A3029 RMK A01 T00111011  RH  087%=      5-min Rain = 0
KFVS 141930Z 17010KT 01/M01 A3028 RMK A01 T00121009  RH  087%=      5-min Rain = 0
KFVS 141935Z 18011G16KT 01/M01 A3028 RMK A01 T00121010  RH  086%=      5-min Rain = 0
KFVS 141940Z 19011G16KT 01/M01 A3028 RMK A01 T00121008  RH  087%=      5-min Rain = 0
KFVS 141945Z 19011G16KT 01/M01 A3027 RMK A01 T00121008  RH  087%=      5-min Rain = 0
KFVS 141950Z 19010KT 01/M01 A3027 RMK A01 T00141006  RH  087%=      5-min Rain = 0
KFVS 141955Z 19009KT 01/M01 A3026 RMK A01 T00141008  RH  086%=      5-min Rain = 0
KFVS 142000Z 19011KT 02/M01 A3026 RMK A01 T00171005  RH  087%=      5-min Rain = 0
KFVS 142005Z 20011KT 02/M01 A3026 RMK A01 T00171005  RH  086%=      5-min Rain = 0
KFVS 142010Z 19012KT 02/M01 A3025 RMK A01 T00181005  RH  086%=      5-min Rain = 0
KFVS 142015Z 20010KT 02/M00 A3025 RMK A01 T00191003  RH  086%=      5-min Rain = 0
KFVS 142020Z 21010KT 02/M00 A3025 RMK A01 T00191003  RH  086%=      5-min Rain = 0
KFVS 142025Z 20011KT 02/M00 A3025 RMK A01 T00201002  RH  086%=      5-min Rain = 0
KFVS 142030Z 20011KT 02/M00 A3025 RMK A01 T00211002  RH  086%=      5-min Rain = 0
KFVS 142035Z 20009KT 02/00 A3025 RMK A01 T002200-0  RH  086%=      5-min Rain = 0
KFVS 142040Z 20009KT 02/00 A3025 RMK A01 T00240002  RH  086%=      5-min Rain = 0
KFVS 142045Z 21008KT 03/00 A3024 RMK A01 T00250001  RH  086%=      5-min Rain = 0
KFVS 142050Z 21008KT 03/00 A3024 RMK A01 T00260003  RH  086%=      5-min Rain = 0
KFVS 142055Z 21009KT 03/00 A3024 RMK A01 T00270003  RH  085%=      5-min Rain = 0
KFVS 142100Z 21008KT 03/00 A3023 RMK A01 T00280003  RH  085%=      5-min Rain = 0
KFVS 142105Z 19007KT 03/01 A3023 RMK A01 T00300005  RH  085%=      5-min Rain = 0
KFVS 142110Z 17006KT 03/01 A3023 RMK A01 T00310005  RH  084%=      5-min Rain = 0
KFVS 142115Z 19007KT 04/01 A3023 RMK A01 T00370011  RH  084%=      5-min Rain = 0
KFVS 142120Z 19008KT 04/01 A3022 RMK A01 T00390011  RH  083%=      5-min Rain = 0
KFVS 142125Z 20008KT 04/01 A3022 RMK A01 T00410010  RH  082%=      5-min Rain = 0
KFVS 142130Z 18007KT 04/01 A3022 RMK A01 T00420011  RH  081%=      5-min Rain = 0
KFVS 142135Z 17007KT 04/01 A3022 RMK A01 T00440012  RH  081%=      5-min Rain = 0
KFVS 142140Z 14006KT 05/01 A3022 RMK A01 T00450009  RH  078%=      5-min Rain = 0
KFVS 142145Z 13006KT 04/01 A3022 RMK A01 T00420007  RH  079%=      5-min Rain = 0
KFVS 142150Z 12006KT 04/01 A3022 RMK A01 T00430008  RH  079%=      5-min Rain = 0
KFVS 142155Z 12006KT 05/01 A3021 RMK A01 T00490013  RH  078%=      5-min Rain = 0
KFVS 142200Z 13007KT 05/01 A3021 RMK A01 T00500013  RH  078%=      5-min Rain = 0
KFVS 142205Z 13007KT 05/01 A3021 RMK A01 T00520012  RH  077%=      5-min Rain = 0
KFVS 142210Z 15005KT 05/01 A302 RMK A01 T00530012  RH  076%=      5-min Rain = 0
KFVS 142215Z 14006KT 05/01 A302 RMK A01 T00520012  RH  076%=      5-min Rain = 0
KFVS 142220Z 13005KT 05/01 A302 RMK A01 T00540011  RH  075%=      5-min Rain = 0
KFVS 142225Z 13005KT 06/01 A302 RMK A01 T00560014  RH  076%=      5-min Rain = 0
KFVS 142230Z 15006KT 06/02 A302 RMK A01 T00590015  RH  075%=      5-min Rain = 0
KFVS 142235Z 15006KT 06/02 A3019 RMK A01 T00610018  RH  075%=      5-min Rain = 0
KFVS 142240Z 16006KT 06/02 A3019 RMK A01 T00610016  RH  074%=      5-min Rain = 0
KFVS 142245Z 16007KT 06/02 A3019 RMK A01 T00620015  RH  073%=      5-min Rain = 0
KFVS 142250Z 14005KT 06/02 A3019 RMK A01 T00630016  RH  073%=      5-min Rain = 0
KFVS 142255Z 13005KT 06/02 A3019 RMK A01 T00630015  RH  072%=      5-min Rain = 0
KFVS 142300Z 14005KT 06/02 A3019 RMK A01 T00640016  RH  073%=      5-min Rain = 0
KFVS 142305Z 16005KT 07/02 A3018 RMK A01 T00660018  RH  072%=      5-min Rain = 0
KFVS 142310Z 15005KT 07/02 A3018 RMK A01 T00670016  RH  071%=      5-min Rain = 0
KFVS 142315Z 16005KT 07/02 A3018 RMK A01 T00670017  RH  072%=      5-min Rain = 0
KFVS 142320Z 15006KT 07/02 A3018 RMK A01 T00680018  RH  071%=      5-min Rain = 0
KFVS 142325Z 15004KT 07/02 A3017 RMK A01 T00700018  RH  070%=      5-min Rain = 0
KFVS 142330Z 15005KT 07/02 A3017 RMK A01 T00730021  RH  071%=      5-min Rain = 0
KFVS 142335Z 16006KT 07/02 A3017 RMK A01 T00740018  RH  069%=      5-min Rain = 0
KFVS 142340Z 16006KT 07/02 A3017 RMK A01 T00730016  RH  068%=      5-min Rain = 0
KFVS 142345Z 15004KT 07/02 A3017 RMK A01 T00730015  RH  068%=      5-min Rain = 0
KFVS 142350Z 16004KT 07/02 A3017 RMK A01 T00740017  RH  068%=      5-min Rain = 0
KFVS 142355Z 15004KT 07/02 A3017 RMK A01 T00730016  RH  068%=      5-min Rain = 0
KFVS 150000Z 15004KT 07/02 A3017 RMK A01 T00720016  RH  068%=      5-min Rain = 0
KFVS 150005Z 16002KT 07/02 A3016 RMK A01 T00720017  RH  069%=      5-min Rain = 0
KFVS 150010Z 17002KT 07/02 A3017 RMK A01 T00710020  RH  071%=      5-min Rain = 0
KFVS 150015Z 17001KT 07/02 A3016 RMK A01 T00710019  RH  071%=      5-min Rain = 0
KFVS 150020Z 17001KT 07/02 A3016 RMK A01 T00700019  RH  071%=      5-min Rain = 0
KFVS 150025Z 17001KT 07/02 A3016 RMK A01 T00670017  RH  071%=      5-min Rain = 0
KFVS 150030Z 17001KT 06/02 A3016 RMK A01 T00640016  RH  072%=      5-min Rain = 0
KFVS 150035Z 17001KT 06/01 A3016 RMK A01 T00630013  RH  071%=      5-min Rain = 0
KFVS 150040Z 17000KT 06/01 A3016 RMK A01 T00620011  RH  071%=      5-min Rain = 0
KFVS 150045Z 17000KT 06/01 A3016 RMK A01 T00620011  RH  071%=      5-min Rain = 0
KFVS 150050Z 00000KT 06/01 A3016 RMK A01 T00620011  RH  071%=      5-min Rain = 0
KFVS 150055Z 27001KT 06/01 A3017 RMK A01 T00610011  RH  071%=      5-min Rain = 0
KFVS 150100Z 27001KT 05/01 A3017 RMK A01 T00500010  RH  077%=      5-min Rain = 0
KFVS 150105Z 27001KT 05/01 A3017 RMK A01 T00450010  RH  080%=      5-min Rain = 0
KFVS 150110Z 00000KT 04/01 A3017 RMK A01 T00390007  RH  081%=      5-min Rain = 0
KFVS 150115Z 00000KT 04/01 A3017 RMK A01 T00380009  RH  083%=      5-min Rain = 0
KFVS 150120Z 00000KT 04/01 A3017 RMK A01 T00380011  RH  084%=      5-min Rain = 0
KFVS 150125Z 00000KT 04/01 A3017 RMK A01 T00420013  RH  083%=      5-min Rain = 0
KFVS 150130Z 00000KT 04/01 A3017 RMK A01 T00440012  RH  081%=      5-min Rain = 0
KFVS 150135Z 19001KT 05/01 A3017 RMK A01 T00450012  RH  081%=      5-min Rain = 0
KFVS 150140Z 19001KT 05/01 A3017 RMK A01 T00480012  RH  079%=      5-min Rain = 0
KFVS 150145Z 15002KT 05/01 A3017 RMK A01 T00480011  RH  078%=      5-min Rain = 0
KFVS 150150Z 16002KT 05/01 A3017 RMK A01 T00470009  RH  078%=      5-min Rain = 0
KFVS 150155Z 16003KT 04/01 A3017 RMK A01 T00440009  RH  079%=      5-min Rain = 0
KFVS 150200Z 14005KT 04/01 A3017 RMK A01 T00410006  RH  079%=      5-min Rain = 0
KFVS 150205Z 15007KT 04/00 A3016 RMK A01 T00360002  RH  080%=      5-min Rain = 0
KFVS 150210Z 15008KT 03/00 A3017 RMK A01 T00330002  RH  081%=      5-min Rain = 0
KFVS 150215Z 15009KT 03/00 A3017 RMK A01 T00340001  RH  080%=      5-min Rain = 0
KFVS 150220Z 15008KT 04/00 A3016 RMK A01 T00360003  RH  080%=      5-min Rain = 0
KFVS 150225Z 16009KT 04/01 A3017 RMK A01 T00430009  RH  079%=      5-min Rain = 0
KFVS 150230Z 16010KT 05/01 A3016 RMK A01 T00510011  RH  076%=      5-min Rain = 0
KFVS 150235Z 16009KT 05/01 A3016 RMK A01 T00520010  RH  075%=      5-min Rain = 0
KFVS 150240Z 16009KT 05/01 A3016 RMK A01 T00510010  RH  076%=      5-min Rain = 0
KFVS 150245Z 16011KT 05/01 A3016 RMK A01 T00530011  RH  075%=      5-min Rain = 0
KFVS 150250Z 16011KT 05/01 A3016 RMK A01 T00520011  RH  076%=      5-min Rain = 0
KFVS 150255Z 16011KT 05/01 A3015 RMK A01 T00510010  RH  076%=      5-min Rain = 0
KFVS 150300Z 15011KT 05/01 A3015 RMK A01 T00480010  RH  077%=      5-min Rain = 0
KFVS 150305Z 16011KT 05/01 A3016 RMK A01 T00470009  RH  078%=      5-min Rain = 0
KFVS 150310Z 16010KT 05/01 A3016 RMK A01 T00450009  RH  078%=      5-min Rain = 0
KFVS 150315Z 16011KT 05/01 A3016 RMK A01 T00460009  RH  078%=      5-min Rain = 0
KFVS 150320Z 17010KT 05/01 A3016 RMK A01 T00450009  RH  079%=      5-min Rain = 0
KFVS 150325Z 17011KT 04/01 A3016 RMK A01 T00440009  RH  079%=      5-min Rain = 0
KFVS 150330Z 17011KT 05/01 A3016 RMK A01 T00450009  RH  079%=      5-min Rain = 0
KFVS 150335Z 17011KT 05/01 A3016 RMK A01 T00450009  RH  078%=      5-min Rain = 0
KFVS 150340Z 17011KT 05/01 A3016 RMK A01 T00450009  RH  078%=      5-min Rain = 0
KFVS 150345Z 17011KT 05/01 A3016 RMK A01 T00460009  RH  078%=      5-min Rain = 0
KFVS 150350Z 17011KT 05/01 A3016 RMK A01 T00460008  RH  078%=      5-min Rain = 0
KFVS 150355Z 17012KT 05/01 A3016 RMK A01 T00450009  RH  078%=      5-min Rain = 0
KFVS 150400Z 17011KT 04/01 A3016 RMK A01 T00440008  RH  078%=      5-min Rain = 0
KFVS 150405Z 18010KT 04/01 A3016 RMK A01 T00410007  RH  080%=      5-min Rain = 0
KFVS 150410Z 18010KT 04/01 A3016 RMK A01 T00380006  RH  081%=      5-min Rain = 0
KFVS 150415Z 18010KT 04/01 A3016 RMK A01 T00360006  RH  082%=      5-min Rain = 0
KFVS 150420Z 18011KT 04/01 A3016 RMK A01 T00360006  RH  082%=      5-min Rain = 0
KFVS 150425Z 18011KT 04/01 A3016 RMK A01 T00370007  RH  082%=      5-min Rain = 0
KFVS 150430Z 18011KT 04/01 A3016 RMK A01 T00370007  RH  082%=      5-min Rain = 0
KFVS 150435Z 18011KT 04/01 A3015 RMK A01 T00370007  RH  082%=      5-min Rain = 0
KFVS 150440Z 18011KT 04/01 A3015 RMK A01 T00370007  RH  082%=      5-min Rain = 0
KFVS 150445Z 18011KT 04/01 A3015 RMK A01 T00360007  RH  082%=      5-min Rain = 0
KFVS 150450Z 18011KT 04/01 A3015 RMK A01 T00350007  RH  083%=      5-min Rain = 0
KFVS 150455Z 18011KT 04/01 A3015 RMK A01 T00350007  RH  083%=      5-min Rain = 0
KFVS 150500Z 18011KT 04/01 A3015 RMK A01 T00350007  RH  083%=      5-min Rain = 0
KFVS 150505Z 18011KT 03/01 A3014 RMK A01 T00340008  RH  084%=      5-min Rain = 0
KFVS 150510Z 18012KT 04/01 A3014 RMK A01 T00360010  RH  085%=      5-min Rain = 0
KFVS 150515Z 18013KT 04/01 A3014 RMK A01 T00390013  RH  084%=      5-min Rain = 0
KFVS 150520Z 18013KT 04/01 A3014 RMK A01 T00400014  RH  084%=      5-min Rain = 0
KFVS 150525Z 18013KT 04/02 A3014 RMK A01 T00420016  RH  084%=      5-min Rain = 0
KFVS 150530Z 18013KT 04/02 A3014 RMK A01 T00440017  RH  084%=      5-min Rain = 0
KFVS 150535Z 19013KT 05/02 A3014 RMK A01 T00450018  RH  084%=      5-min Rain = 0
KFVS 150540Z 19013KT 05/02 A3014 RMK A01 T00450018  RH  084%=      5-min Rain = 0
KFVS 150545Z 19013KT 05/02 A3014 RMK A01 T00450018  RH  084%=      5-min Rain = 0
KFVS 150550Z 19012KT 04/02 A3014 RMK A01 T00430017  RH  084%=      5-min Rain = 0
KFVS 150555Z 18011KT 04/02 A3014 RMK A01 T00390015  RH  085%=      5-min Rain = 0

Page generated in 0.0264 seconds.